Time;durP1;ratioP1;P1;durP2;ratioP2;P2;SDS_P1;SDS_P2;PMS_P1;PMS_P2;Temp;Humidity;BMP_temperature;BMP_pressure;BME280_temperature;BME280_humidity;BME280_pressure;Samples;Min_cycle;Max_cycle;Signal;HPM_P1;HPM_P2
2023/10/02 00:00:19;;;;;;;;;;;;;;;21.08;40.84;100639.25;5073548;28;19948;-67
2023/10/02 00:02:45;;;;;;;;;;;;;;;21.10;41.06;100637.09;5073761;28;19946;-67
2023/10/02 00:05:11;;;;;;;;;;;;;;;21.08;42.11;100628.34;5073584;28;19913;-67
2023/10/02 00:07:38;;;;;;;;;;;;;;;21.09;41.60;100632.69;5073566;28;19935;-67
2023/10/02 00:10:04;;;;;;;;;;;;;;;21.08;42.05;100628.34;5073711;28;19951;-67
2023/10/02 00:12:31;;;;;;;;;;;;;;;21.09;41.66;100613.56;5073403;28;20416;-67
2023/10/02 00:14:57;;;;;;;;;;;;;;;21.10;42.05;100606.19;5073594;28;20333;-67
2023/10/02 00:17:25;;;;;;;;;;;;;;;21.10;41.98;100603.47;5089440;28;19923;-67
2023/10/02 00:19:57;;;;;;;;;;;;;;;21.09;41.96;100594.47;5093543;28;19919;-67
2023/10/02 00:22:36;;;;;;;;;;;;;;;21.11;41.98;100594.19;5094024;28;19935;-66
2023/10/02 00:25:16;;;;;;;;;;;;;;;21.11;42.36;100594.19;5069275;28;19913;-67
2023/10/02 00:27:45;;;;;;;;;;;;;;;21.11;42.76;100586.00;5053001;28;19940;-66
2023/10/02 00:30:13;;;;;;;;;;;;;;;21.09;42.06;100591.72;5053389;28;19923;-67
2023/10/02 00:32:41;;;;;;;;;;;;;;;21.08;43.13;100590.91;5053247;28;19917;-66
2023/10/02 00:35:10;;;;;;;;;;;;;;;21.07;42.65;100583.78;5056207;28;20269;-65
2023/10/02 00:37:47;;;;;;;;;;;;;;;21.09;43.07;100578.06;5056053;28;20002;-64
2023/10/02 00:40:22;;;;;;;;;;;;;;;21.12;42.64;100577.56;5073666;28;19913;-65
2023/10/02 00:42:54;;;;;;;;;;;;;;;21.14;42.69;100580.03;5073779;28;19912;-65
2023/10/02 00:45:20;;;;;;;;;;;;;;;21.13;43.01;100571.00;5073420;28;19999;-67
2023/10/02 00:47:46;;;;;;;;;;;;;;;21.14;43.18;100569.13;5073102;28;20081;-66
2023/10/02 00:50:19;;;;;;;;;;;;;;;21.14;42.65;100560.91;5055455;28;19970;-67
2023/10/02 00:52:54;;;;;;;;;;;;;;;21.14;42.96;100567.19;5073314;28;19913;-66
2023/10/02 00:55:21;;;;;;;;;;;;;;;21.19;42.48;100564.50;5072815;28;19920;-66
2023/10/02 00:57:49;;;;;;;;;;;;;;;21.22;42.85;100565.88;5073186;28;20293;-66
2023/10/02 01:00:19;;;;;;;;;;;;;;;21.22;42.90;100561.22;5073019;28;19912;-66
2023/10/02 01:02:49;;;;;;;;;;;;;;;21.21;42.79;100550.56;5073005;28;20005;-66
2023/10/02 01:05:30;;;;;;;;;;;;;;;21.21;43.03;100539.63;5072790;28;20365;-66
2023/10/02 01:07:55;;;;;;;;;;;;;;;21.24;42.75;100534.47;5072867;28;19919;-65
2023/10/02 01:10:23;;;;;;;;;;;;;;;21.24;43.12;100539.94;5072815;28;19912;-65
2023/10/02 01:12:53;;;;;;;;;;;;;;;21.24;43.15;100539.13;5072932;28;19926;-66
2023/10/02 01:15:19;;;;;;;;;;;;;;;21.24;43.05;100533.66;5072870;28;19912;-66
2023/10/02 01:17:48;;;;;;;;;;;;;;;21.26;42.83;100526.03;5091661;28;19912;-65
2023/10/02 01:23:11;;;;;;;;;;;;;;;21.27;43.46;100522.22;5052858;28;19935;-65
2023/10/02 01:25:39;;;;;;;;;;;;;;;21.30;42.92;100518.13;5052735;28;19921;-65
2023/10/02 01:28:05;;;;;;;;;;;;;;;21.29;43.14;100521.97;5052803;28;19988;-65
2023/10/02 01:30:30;;;;;;;;;;;;;;;21.29;43.30;100514.59;5052594;28;19971;-66
2023/10/02 01:33:12;;;;;;;;;;;;;;;21.31;43.19;100517.88;5068414;28;19920;-66
2023/10/02 01:35:38;;;;;;;;;;;;;;;21.31;43.49;100511.59;5072515;28;19912;-67
2023/10/02 01:38:12;;;;;;;;;;;;;;;21.33;43.37;100512.16;5072753;28;19961;-67
2023/10/02 01:40:39;;;;;;;;;;;;;;;21.31;43.16;100503.41;5058520;28;19912;-67
2023/10/02 01:43:14;;;;;;;;;;;;;;;21.29;43.96;100503.66;5076135;28;19912;-66
2023/10/02 01:45:42;;;;;;;;;;;;;;;21.27;44.20;100503.91;5076093;28;19920;-67
2023/10/02 01:48:13;;;;;;;;;;;;;;;21.27;43.75;100492.97;5076252;28;19919;-66
2023/10/02 01:50:38;;;;;;;;;;;;;;;21.28;43.85;100488.34;5076225;28;19920;-66
2023/10/02 01:53:07;;;;;;;;;;;;;;;21.31;43.90;100490.56;5076074;28;20269;-66
2023/10/02 01:55:35;;;;;;;;;;;;;;;21.29;43.67;100481.00;5082583;28;19912;-66
2023/10/02 01:58:16;;;;;;;;;;;;;;;21.27;44.05;100482.06;5078459;28;19916;-66
2023/10/02 02:00:42;;;;;;;;;;;;;;;21.26;43.91;100474.94;5080176;28;19912;-66
2023/10/02 02:03:17;;;;;;;;;;;;;;;21.27;44.08;100483.97;5079590;28;19913;-66
2023/10/02 02:05:46;;;;;;;;;;;;;;;21.29;44.14;100476.34;5075766;28;19920;-66
2023/10/02 02:08:21;;;;;;;;;;;;;;;21.28;43.98;100474.69;5075514;28;19920;-66
2023/10/02 02:10:48;;;;;;;;;;;;;;;21.30;43.95;100468.97;5076041;28;19971;-66
2023/10/02 02:13:14;;;;;;;;;;;;;;;21.34;43.65;100473.63;5076026;28;19921;-66
2023/10/02 02:15:44;;;;;;;;;;;;;;;21.35;43.62;100478.00;5077282;28;20373;-66
2023/10/02 02:18:09;;;;;;;;;;;;;;;21.35;43.74;100482.66;5065094;28;19917;-66
2023/10/02 02:23:21;;;;;;;;;;;;;;;21.38;43.96;100485.69;5078567;28;19918;-66
2023/10/02 02:25:46;;;;;;;;;;;;;;;21.40;43.52;100491.69;5095629;28;19916;-66
2023/10/02 02:28:12;;;;;;;;;;;;;;;21.37;43.75;100484.03;5087904;28;20486;-65
2023/10/02 02:30:40;;;;;;;;;;;;;;;21.32;44.33;100486.75;5075198;28;19919;-65
2023/10/02 02:33:08;;;;;;;;;;;;;;;21.31;43.43;100484.28;5075168;28;19956;-66
2023/10/02 02:35:36;;;;;;;;;;;;;;;21.35;43.59;100482.66;5075263;28;19916;-65
2023/10/02 02:38:02;;;;;;;;;;;;;;;21.33;43.71;100482.91;5075072;28;20777;-67
2023/10/02 02:40:32;;;;;;;;;;;;;;;21.30;43.84;100485.34;5075074;28;19912;-66
2023/10/02 02:42:57;;;;;;;;;;;;;;;21.24;43.99;100484.50;5075167;28;19912;-66
2023/10/02 02:45:29;;;;;;;;;;;;;;;21.24;44.04;100468.09;5075109;28;19957;-65
2023/10/02 02:47:55;;;;;;;;;;;;;;;21.26;43.56;100468.66;5074715;28;20393;-67
2023/10/02 02:50:40;;;;;;;;;;;;;;;21.31;43.61;100470.63;5074646;28;19993;-65
2023/10/02 02:53:21;;;;;;;;;;;;;;;21.36;43.29;100466.00;5074717;28;20519;-65
2023/10/02 02:56:18;;;;;;;;;;;;;;;21.39;43.51;100462.72;5084084;28;19912;-65
2023/10/02 02:58:51;;;;;;;;;;;;;;;21.37;43.50;100456.69;5095251;28;20336;-66
2023/10/02 03:01:21;;;;;;;;;;;;;;;21.34;43.83;100457.25;5077966;28;20270;-65
2023/10/02 03:03:50;;;;;;;;;;;;;;;21.30;43.86;100445.19;5054668;28;19999;-65
2023/10/02 03:06:22;;;;;;;;;;;;;;;21.29;44.08;100446.28;5054720;28;19932;-65
2023/10/02 03:08:48;;;;;;;;;;;;;;;21.27;44.21;100445.72;5054480;28;19963;-65
2023/10/02 03:11:19;;;;;;;;;;;;;;;21.28;43.86;100452.81;5054700;28;19912;-65
2023/10/02 03:13:45;;;;;;;;;;;;;;;21.28;43.96;100444.63;5061158;28;19913;-65
2023/10/02 03:16:19;;;;;;;;;;;;;;;21.30;44.14;100444.38;5080279;28;19912;-65
2023/10/02 03:18:45;;;;;;;;;;;;;;;21.30;44.04;100434.25;5094785;28;19912;-65
2023/10/02 03:21:23;;;;;;;;;;;;;;;21.30;44.53;100445.19;5094773;28;19924;-65
2023/10/02 03:23:49;;;;;;;;;;;;;;;21.30;43.98;100438.91;5069177;28;19920;-65
2023/10/02 03:26:27;;;;;;;;;;;;;;;21.26;44.05;100439.44;5074027;28;19916;-65
2023/10/02 03:29:02;;;;;;;;;;;;;;;21.24;44.12;100440.78;5074251;28;20264;-66
2023/10/02 03:31:35;;;;;;;;;;;;;;;21.23;44.16;100436.44;5074455;28;19913;-66
2023/10/02 03:36:55;;;;;;;;;;;;;;;21.25;44.36;100424.13;5073778;28;19913;-66
2023/10/02 03:39:23;;;;;;;;;;;;;;;21.23;44.67;100425.50;5074129;28;19924;-66
2023/10/02 03:41:50;;;;;;;;;;;;;;;21.15;44.87;100421.34;5074229;28;20025;-67
2023/10/02 03:44:16;;;;;;;;;;;;;;;21.14;44.50;100419.72;5073874;28;19912;-66
2023/10/02 03:46:42;;;;;;;;;;;;;;;21.11;44.92;100412.03;5073924;28;19923;-66
2023/10/02 03:49:08;;;;;;;;;;;;;;;21.14;44.30;100408.78;5073888;28;20011;-66
2023/10/02 03:51:40;;;;;;;;;;;;;;;21.15;44.90;100410.41;5055765;28;19920;-66
2023/10/02 03:54:18;;;;;;;;;;;;;;;21.13;44.69;100407.13;5073306;28;20331;-66
2023/10/02 03:56:47;;;;;;;;;;;;;;;21.17;44.90;100404.69;5082257;28;19919;-66
2023/10/02 03:59:13;;;;;;;;;;;;;;;21.16;44.92;100403.06;5073833;28;20380;-66
2023/10/02 04:01:40;;;;;;;;;;;;;;;21.17;44.86;100405.53;5068965;28;19917;-66
2023/10/02 04:06:44;;;;;;;;;;;;;;;21.16;45.80;100414.81;5053624;28;20388;-65
2023/10/02 04:09:21;;;;;;;;;;;;;;;21.11;44.82;100409.31;5053443;28;19936;-65
2023/10/02 04:11:48;;;;;;;;;;;;;;;21.03;44.98;100418.84;5053597;28;19921;-65
2023/10/02 04:14:17;;;;;;;;;;;;;;;21.08;44.97;100416.13;5053495;28;20039;-66
2023/10/02 04:16:48;;;;;;;;;;;;;;;21.08;44.71;100415.31;5074321;28;20248;-66
2023/10/02 04:19:22;;;;;;;;;;;;;;;21.08;44.86;100418.88;5093578;28;20335;-66
2023/10/02 04:21:48;;;;;;;;;;;;;;;21.03;44.94;100423.47;5076410;28;19917;-65
2023/10/02 04:24:13;;;;;;;;;;;;;;;20.92;44.81;100421.78;5084099;28;19912;-66
2023/10/02 04:26:41;;;;;;;;;;;;;;;20.95;44.66;100422.06;5093619;28;19923;-66
2023/10/02 04:32:04;;;;;;;;;;;;;;;20.88;44.77;100432.41;5072563;28;19951;-66
2023/10/02 04:34:31;;;;;;;;;;;;;;;20.80;44.87;100420.06;5073397;28;19916;-66
2023/10/02 04:36:56;;;;;;;;;;;;;;;20.86;44.57;100432.66;5073226;28;19916;-66
2023/10/02 04:44:56;;;;;;;;;;;;;;;20.78;45.07;100415.94;5060161;28;19923;-67
2023/10/02 04:47:23;;;;;;;;;;;;;;;20.76;44.95;100418.94;5073375;28;20005;-64
2023/10/02 04:52:53;;;;;;;;;;;;;;;20.83;44.37;100416.78;5073119;28;20373;-66
2023/10/02 04:55:22;;;;;;;;;;;;;;;20.87;44.37;100414.38;5077150;28;19999;-66
2023/10/02 04:57:50;;;;;;;;;;;;;;;20.82;44.62;100417.06;5093632;28;19935;-67
2023/10/02 05:00:32;;;;;;;;;;;;;;;20.80;44.84;100414.63;5093350;28;20357;-66
2023/10/02 05:03:09;;;;;;;;;;;;;;;20.82;44.67;100417.91;5077894;28;19912;-66
2023/10/02 05:05:48;;;;;;;;;;;;;;;20.80;44.69;100422.81;5072751;28;19920;-66
2023/10/02 05:08:19;;;;;;;;;;;;;;;20.74;44.75;100425.75;5072861;28;19960;-66
2023/10/02 05:10:47;;;;;;;;;;;;;;;20.62;45.03;100424.03;5072740;28;19920;-66
2023/10/02 05:13:13;;;;;;;;;;;;;;;20.63;44.89;100416.66;5073255;28;19960;-66
2023/10/02 05:16:06;;;;;;;;;;;;;;;20.65;44.82;100412.59;5078610;28;19916;-66
2023/10/02 05:18:24;;;;;;;;;;;;;;;20.74;44.78;100414.84;5076900;28;19917;-66
2023/10/02 05:20:49;;;;;;;;;;;;;;;20.72;44.51;100422.47;5076392;28;19920;-66
2023/10/02 05:23:15;;;;;;;;;;;;;;;20.75;44.71;100419.22;5078799;28;19912;-66
2023/10/02 05:25:41;;;;;;;;;;;;;;;20.69;44.81;100423.81;5096838;28;19917;-66
2023/10/02 05:28:07;;;;;;;;;;;;;;;20.65;45.35;100422.69;5093698;28;19916;-66
2023/10/02 05:30:41;;;;;;;;;;;;;;;20.63;45.23;100424.84;5076522;28;19912;-67
2023/10/02 05:33:07;;;;;;;;;;;;;;;20.62;46.10;100425.94;5058308;28;19920;-66
2023/10/02 05:35:33;;;;;;;;;;;;;;;20.55;45.20;100417.94;5076198;28;20294;-67
2023/10/02 05:37:58;;;;;;;;;;;;;;;20.53;45.55;100422.84;5076050;28;19913;-66
2023/10/02 05:43:17;;;;;;;;;;;;;;;20.54;45.42;100423.66;5076127;28;19913;-66
2023/10/02 05:50:53;;;;;;;;;;;;;;;20.50;45.70;100432.38;5076162;28;19913;-67
2023/10/02 05:53:20;;;;;;;;;;;;;;;20.50;45.47;100431.53;5076332;28;19977;-67
2023/10/02 05:56:05;;;;;;;;;;;;;;;20.50;45.78;100428.81;5075421;28;19913;-67
2023/10/02 05:58:33;;;;;;;;;;;;;;;20.46;45.81;100424.97;5075801;28;19962;-67
2023/10/02 06:01:03;;;;;;;;;;;;;;;20.44;45.47;100425.22;5075715;28;19961;-65
2023/10/02 06:03:34;;;;;;;;;;;;;;;20.33;46.22;100428.13;5075487;28;20396;-65
2023/10/02 06:06:15;;;;;;;;;;;;;;;20.37;45.86;100432.78;5075965;28;20284;-65
2023/10/02 06:09:03;;;;;;;;;;;;;;;20.37;45.48;100429.25;5075637;28;19946;-66
2023/10/02 06:11:33;;;;;;;;;;;;;;;20.45;45.50;100426.06;5075892;28;19913;-66
2023/10/02 06:14:09;;;;;;;;;;;;;;;20.44;45.38;100430.66;5075635;28;19916;-66
2023/10/02 06:16:35;;;;;;;;;;;;;;;20.45;45.46;100426.88;5075456;28;19962;-66
2023/10/02 06:19:04;;;;;;;;;;;;;;;20.40;45.90;100440.47;5075854;28;20335;-66
2023/10/02 06:21:31;;;;;;;;;;;;;;;20.35;45.67;100434.97;5075249;28;19923;-66
2023/10/02 06:23:56;;;;;;;;;;;;;;;20.46;45.11;100436.69;5083261;28;20015;-66
2023/10/02 06:26:25;;;;;;;;;;;;;;;20.46;45.21;100439.41;5074540;28;20011;-66
2023/10/02 06:29:13;;;;;;;;;;;;;;;20.46;45.35;100435.88;5075592;28;19912;-67
2023/10/02 06:31:41;;;;;;;;;;;;;;;20.50;45.42;100443.28;5075210;28;20258;-67
2023/10/02 06:34:07;;;;;;;;;;;;;;;20.54;45.25;100438.13;5075279;28;19912;-67
2023/10/02 06:36:38;;;;;;;;;;;;;;;20.59;45.37;100442.81;5075449;28;19912;-67
2023/10/02 06:39:03;;;;;;;;;;;;;;;20.57;45.40;100443.06;5075234;28;19912;-66
2023/10/02 06:41:28;;;;;;;;;;;;;;;20.63;45.31;100452.13;5075227;28;19924;-66
2023/10/02 06:43:54;;;;;;;;;;;;;;;20.62;45.65;100455.97;5075022;28;20353;-67
2023/10/02 06:46:19;;;;;;;;;;;;;;;20.74;45.17;100453.03;5074801;28;19916;-66
2023/10/02 06:48:46;;;;;;;;;;;;;;;20.74;45.06;100453.03;5057186;28;19938;-66
2023/10/02 06:51:15;;;;;;;;;;;;;;;20.68;45.32;100444.81;5071126;28;19961;-66
2023/10/02 06:53:41;;;;;;;;;;;;;;;20.76;45.31;100453.59;5065112;28;19916;-66
2023/10/02 06:56:10;;;;;;;;;;;;;;;20.77;45.17;100452.53;5063496;28;19955;-67
2023/10/02 06:58:48;;;;;;;;;;;;;;;20.84;45.19;100450.41;5054801;28;19916;-67
2023/10/02 07:01:14;;;;;;;;;;;;;;;20.88;45.12;100459.69;5054491;28;19913;-66
2023/10/02 07:03:39;;;;;;;;;;;;;;;20.85;45.17;100457.50;5054724;28;19912;-68
2023/10/02 07:06:07;;;;;;;;;;;;;;;20.90;44.82;100463.00;5054257;28;19923;-67
2023/10/02 07:08:34;;;;;;;;;;;;;;;20.88;45.07;100460.50;5053416;28;19928;-67
2023/10/02 07:11:09;;;;;;;;;;;;;;;20.83;45.09;100460.47;5074766;28;19939;-68
2023/10/02 07:13:35;;;;;;;;;;;;;;;20.88;45.13;100460.50;5074192;28;20007;-68
2023/10/02 07:16:00;;;;;;;;;;;;;;;20.94;44.88;100466.84;5074018;28;19947;-68
2023/10/02 07:18:37;;;;;;;;;;;;;;;20.99;44.67;100455.13;5074236;28;19916;-68
2023/10/02 07:21:08;;;;;;;;;;;;;;;20.93;44.93;100451.56;5074472;28;20288;-68
2023/10/02 07:23:37;;;;;;;;;;;;;;;21.01;44.60;100456.50;5079602;28;19916;-68
2023/10/02 07:26:04;;;;;;;;;;;;;;;21.11;44.55;100460.38;5094730;28;19920;-68
2023/10/02 07:28:32;;;;;;;;;;;;;;;21.16;44.38;100454.97;5094948;28;19995;-68
2023/10/02 07:30:59;;;;;;;;;;;;;;;21.26;44.53;100455.81;5094512;28;20415;-68
2023/10/02 07:33:25;;;;;;;;;;;;;;;21.23;44.46;100467.28;5094301;28;19912;-68
2023/10/02 07:35:54;;;;;;;;;;;;;;;21.08;44.12;100462.56;5094726;28;20624;-67
2023/10/02 07:38:30;;;;;;;;;;;;;;;21.02;44.16;100460.06;5094486;28;20360;-67
2023/10/02 07:41:06;;;;;;;;;;;;;;;21.07;44.39;100468.28;5092136;28;19939;-68
2023/10/02 07:43:31;;;;;;;;;;;;;;;21.07;44.54;100462.81;5073914;28;19920;-67
2023/10/02 07:46:01;;;;;;;;;;;;;;;21.06;43.98;100456.53;5073862;28;19916;-68
2023/10/02 07:48:35;;;;;;;;;;;;;;;21.12;43.74;100459.28;5074372;28;20005;-68
2023/10/02 07:51:01;;;;;;;;;;;;;;;21.24;44.11;100465.38;5073946;28;19912;-67
2023/10/02 07:53:38;;;;;;;;;;;;;;;21.11;43.65;100460.38;5073848;28;20242;-67
2023/10/02 07:56:11;;;;;;;;;;;;;;;21.15;43.92;100464.22;5081098;28;20242;-67
2023/10/02 07:58:37;;;;;;;;;;;;;;;21.15;43.60;100465.03;5094380;28;19961;-67
2023/10/02 08:01:11;;;;;;;;;;;;;;;21.13;44.12;100466.41;5093918;28;19912;-67
2023/10/02 08:03:42;;;;;;;;;;;;;;;21.30;43.71;100458.84;5053934;28;20389;-67
2023/10/02 08:09:35;;;;;;;;;;;;;;;21.24;43.41;100454.44;5073729;28;19927;-67
2023/10/02 08:11:41;;;;;;;;;;;;;;;21.34;43.52;100450.94;5073490;28;19913;-67
2023/10/02 08:14:08;;;;;;;;;;;;;;;21.35;43.08;100455.34;5074031;28;19952;-67
2023/10/02 08:16:58;;;;;;;;;;;;;;;21.33;43.07;100463.78;5073865;28;19957;-67
2023/10/02 08:19:20;;;;;;;;;;;;;;;21.44;43.24;100464.66;5073601;28;19912;-67
2023/10/02 08:21:48;;;;;;;;;;;;;;;21.56;43.12;100469.94;5073535;28;19951;-67
2023/10/02 08:24:14;;;;;;;;;;;;;;;21.58;42.88;100462.28;5083911;28;19951;-67
2023/10/02 08:26:43;;;;;;;;;;;;;;;21.62;42.63;100466.97;5094075;28;19974;-67
2023/10/02 08:29:14;;;;;;;;;;;;;;;21.64;42.71;100459.31;5093865;28;20377;-67
2023/10/02 08:31:43;;;;;;;;;;;;;;;21.74;42.66;100458.53;5093527;28;19937;-67
2023/10/02 08:34:12;;;;;;;;;;;;;;;21.81;42.72;100466.47;5093645;28;19916;-67
2023/10/02 08:36:38;;;;;;;;;;;;;;;21.80;42.40;100454.72;5093515;28;20317;-67
2023/10/02 08:39:04;;;;;;;;;;;;;;;21.91;42.32;100463.75;5075754;28;20007;-67
2023/10/02 08:41:31;;;;;;;;;;;;;;;21.95;42.30;100458.56;5073351;28;20373;-67
2023/10/02 08:44:00;;;;;;;;;;;;;;;22.08;42.31;100465.44;5073353;28;19927;-67
2023/10/02 08:46:26;;;;;;;;;;;;;;;22.12;41.66;100450.97;5073067;28;19923;-67
2023/10/02 08:48:57;;;;;;;;;;;;;;;22.16;41.79;100457.53;5074757;28;19912;-68
2023/10/02 08:51:29;;;;;;;;;;;;;;;22.01;41.39;100460.25;5085767;28;19912;-67
2023/10/02 08:53:56;;;;;;;;;;;;;;;22.02;41.87;100461.88;5056609;28;19917;-67
2023/10/02 08:56:21;;;;;;;;;;;;;;;21.99;41.92;100457.78;5085039;28;19912;-67
2023/10/02 08:58:47;;;;;;;;;;;;;;;21.94;41.81;100454.22;5097534;28;19919;-68
2023/10/02 09:01:20;;;;;;;;;;;;;;;21.94;41.17;100460.50;5095843;28;19966;-67
2023/10/02 09:03:47;;;;;;;;;;;;;;;22.01;41.79;100465.72;5077342;28;19924;-67
2023/10/02 09:11:41;;;;;;;;;;;;;;;22.36;42.02;100462.25;5076900;28;19916;-67
2023/10/02 09:16:45;;;;;;;;;;;;;;;22.46;41.58;100458.69;5087509;28;20360;-67
2023/10/02 09:19:30;;;;;;;;;;;;;;;22.48;41.50;100456.50;5096950;28;19916;-67
2023/10/02 09:22:06;;;;;;;;;;;;;;;22.40;41.47;100466.09;5097106;28;19912;-67
2023/10/02 09:24:33;;;;;;;;;;;;;;;22.42;42.40;100469.38;5083948;28;19986;-68
2023/10/02 09:27:20;;;;;;;;;;;;;;;22.40;41.29;100473.47;5076493;28;19963;-68
2023/10/02 09:29:45;;;;;;;;;;;;;;;22.24;41.15;100472.59;5076183;28;19920;-67
2023/10/02 09:32:21;;;;;;;;;;;;;;;22.19;41.28;100467.94;5076688;28;19971;-68
2023/10/02 09:35:08;;;;;;;;;;;;;;;22.18;41.67;100476.41;5076709;28;20427;-67
2023/10/02 09:37:35;;;;;;;;;;;;;;;22.14;41.70;100470.66;5076298;28;19913;-67
2023/10/02 09:40:14;;;;;;;;;;;;;;;22.20;41.54;100475.03;5076189;28;19913;-67
2023/10/02 09:42:45;;;;;;;;;;;;;;;22.27;41.58;100463.88;5076319;28;19913;-68
2023/10/02 09:45:14;;;;;;;;;;;;;;;22.32;41.52;100458.41;5076726;28;19916;-67
2023/10/02 09:47:42;;;;;;;;;;;;;;;22.36;41.48;100461.41;5058497;28;19916;-68
2023/10/02 09:50:23;;;;;;;;;;;;;;;22.35;41.22;100457.03;5076097;28;19919;-67
2023/10/02 09:53:08;;;;;;;;;;;;;;;22.42;41.16;100454.88;5076241;28;19912;-68
2023/10/02 09:55:40;;;;;;;;;;;;;;;22.55;40.59;100448.03;5075426;28;19939;-67
2023/10/02 09:58:26;;;;;;;;;;;;;;;22.56;40.45;100461.41;5071839;28;19952;-68
2023/10/02 10:01:59;;;;;;;;;;;;;;;22.52;40.32;100454.84;5074704;28;19912;-67
2023/10/02 10:03:59;;;;;;;;;;;;;;;22.63;40.73;100454.88;5048389;28;19912;-67
2023/10/02 10:06:41;;;;;;;;;;;;;;;22.83;40.42;100463.06;5055856;28;19917;-68
2023/10/02 10:11:44;;;;;;;;;;;;;;;22.91;40.38;100451.53;5075829;28;19951;-67
2023/10/02 10:14:36;;;;;;;;;;;;;;;23.05;40.42;100454.56;5075826;28;19912;-68
2023/10/02 10:17:12;;;;;;;;;;;;;;;23.04;40.08;100455.66;5088639;28;19958;-67
2023/10/02 10:19:38;;;;;;;;;;;;;;;23.13;39.90;100459.47;5095788;28;19919;-67
2023/10/02 10:22:10;;;;;;;;;;;;;;;23.09;39.74;100457.56;5095974;28;19912;-68
2023/10/02 10:24:56;;;;;;;;;;;;;;;23.25;39.99;100455.59;5082195;28;20011;-67
2023/10/02 10:27:43;;;;;;;;;;;;;;;23.36;39.92;100452.56;5075506;28;19922;-68
2023/10/02 10:30:39;;;;;;;;;;;;;;;23.51;39.93;100461.81;5076069;28;19996;-68
2023/10/02 10:35:51;;;;;;;;;;;;;;;23.82;39.31;100448.00;5076862;28;19919;-68
2023/10/02 10:38:21;;;;;;;;;;;;;;;23.89;38.82;100454.00;5078447;28;20558;-68
2023/10/02 10:40:50;;;;;;;;;;;;;;;23.84;38.67;100441.13;5077210;28;19919;-68
2023/10/02 10:43:21;;;;;;;;;;;;;;;23.84;38.61;100456.75;5075441;28;19920;-67
2023/10/02 10:45:48;;;;;;;;;;;;;;;23.85;38.51;100448.25;5075141;28;20014;-67
2023/10/02 10:48:21;;;;;;;;;;;;;;;23.91;39.02;100451.78;5075126;28;19912;-67
2023/10/02 10:50:57;;;;;;;;;;;;;;;23.98;38.67;100445.97;5075039;28;19920;-67
2023/10/02 10:53:32;;;;;;;;;;;;;;;24.12;39.31;100444.25;5075052;28;20384;-67
2023/10/02 10:56:16;;;;;;;;;;;;;;;24.36;39.24;100444.34;5075936;28;19920;-68
2023/10/02 10:58:43;;;;;;;;;;;;;;;24.48;38.01;100444.81;5095056;28;19912;-68
2023/10/02 11:01:13;;;;;;;;;;;;;;;24.53;38.38;100447.53;5095253;28;19962;-68
2023/10/02 11:03:54;;;;;;;;;;;;;;;24.61;38.23;100445.25;5055123;28;19920;-68
2023/10/02 11:06:22;;;;;;;;;;;;;;;24.75;37.97;100448.16;5063728;28;19922;-68
2023/10/02 11:09:15;;;;;;;;;;;;;;;24.80;37.66;100435.19;5074298;28;19928;-68
2023/10/02 11:11:49;;;;;;;;;;;;;;;24.86;38.29;100433.22;5074123;28;19970;-68
2023/10/02 11:14:21;;;;;;;;;;;;;;;25.03;37.78;100433.59;5074674;28;19912;-68
2023/10/02 11:16:54;;;;;;;;;;;;;;;25.28;37.88;100417.97;5085556;28;19924;-68
2023/10/02 11:19:34;;;;;;;;;;;;;;;25.43;37.09;100422.44;5094695;28;20269;-68
2023/10/02 11:22:03;;;;;;;;;;;;;;;25.58;37.37;100427.75;5076476;28;19912;-68
2023/10/02 11:24:29;;;;;;;;;;;;;;;25.80;37.29;100423.63;5082365;28;19923;-68
2023/10/02 11:27:07;;;;;;;;;;;;;;;25.98;37.11;100428.31;5074538;28;19917;-68
2023/10/02 11:29:40;;;;;;;;;;;;;;;26.19;36.31;100433.53;5074510;28;20396;-68
2023/10/02 11:32:24;;;;;;;;;;;;;;;26.33;36.47;100428.06;5074368;28;20230;-69
2023/10/02 11:34:49;;;;;;;;;;;;;;;26.46;36.09;100428.09;5074494;28;20547;-69
2023/10/02 11:37:17;;;;;;;;;;;;;;;26.51;36.14;100423.63;5074283;28;19920;-69
2023/10/02 11:39:43;;;;;;;;;;;;;;;26.64;35.74;100426.44;5073876;28;19912;-68
2023/10/02 11:42:09;;;;;;;;;;;;;;;26.73;35.25;100426.56;5074149;28;20003;-68
2023/10/02 11:44:35;;;;;;;;;;;;;;;26.85;35.80;100415.88;5074243;28;19936;-69
2023/10/02 11:47:00;;;;;;;;;;;;;;;26.99;34.64;100412.31;5073892;28;20003;-69
2023/10/02 11:49:29;;;;;;;;;;;;;;;27.15;35.23;100402.59;5074284;28;19917;-69
2023/10/02 11:52:00;;;;;;;;;;;;;;;27.37;34.78;100406.63;5073774;28;19916;-68
2023/10/02 11:54:26;;;;;;;;;;;;;;;27.51;35.49;100412.94;5073338;28;19961;-69
2023/10/02 11:56:52;;;;;;;;;;;;;;;27.59;33.80;100416.91;5073764;28;20345;-69
2023/10/02 11:59:17;;;;;;;;;;;;;;;27.67;34.38;100413.41;5073752;28;20030;-69
2023/10/02 12:01:45;;;;;;;;;;;;;;;27.53;33.13;100407.13;5073490;28;19958;-69
2023/10/02 12:04:10;;;;;;;;;;;;;;;27.65;33.99;100409.34;5073155;28;19997;-69
2023/10/02 12:06:38;;;;;;;;;;;;;;;27.60;33.41;100400.06;5056393;28;20613;-69
2023/10/02 12:09:04;;;;;;;;;;;;;;;27.74;33.52;100408.28;5053409;28;19928;-69
2023/10/02 12:11:32;;;;;;;;;;;;;;;27.81;33.39;100403.16;5053515;28;19913;-69
2023/10/02 12:13:57;;;;;;;;;;;;;;;27.84;32.73;100396.22;5053811;28;20301;-69
2023/10/02 12:16:23;;;;;;;;;;;;;;;27.81;32.88;100397.63;5068546;28;19919;-69
2023/10/02 12:18:50;;;;;;;;;;;;;;;27.75;32.49;100393.38;5093923;28;19912;-69
2023/10/02 12:21:16;;;;;;;;;;;;;;;27.75;34.10;100395.31;5093703;28;20250;-69
2023/10/02 12:23:43;;;;;;;;;;;;;;;27.65;31.83;100388.06;5065734;28;20013;-69
2023/10/02 12:26:15;;;;;;;;;;;;;;;27.46;33.85;100329.47;5093512;28;19916;-69
2023/10/02 12:28:41;;;;;;;;;;;;;;;27.62;31.38;100377.66;5093406;28;19916;-69
2023/10/02 12:31:07;;;;;;;;;;;;;;;27.65;32.37;100378.97;5093678;28;19977;-69
2023/10/02 12:33:35;;;;;;;;;;;;;;;27.65;30.78;100387.25;5093516;28;19957;-69
2023/10/02 12:36:00;;;;;;;;;;;;;;;27.59;31.27;100390.13;5088728;28;19955;-69
2023/10/02 12:38:26;;;;;;;;;;;;;;;27.67;31.93;100396.84;5073196;28;19924;-69
2023/10/02 12:40:51;;;;;;;;;;;;;;;27.70;32.01;100393.47;5073548;28;19913;-69
2023/10/02 12:43:17;;;;;;;;;;;;;;;27.79;32.69;100393.56;5073062;28;19912;-69
2023/10/02 12:45:43;;;;;;;;;;;;;;;27.88;32.84;100390.84;5072962;28;20003;-69
2023/10/02 12:48:08;;;;;;;;;;;;;;;27.96;31.06;100387.41;5073143;28;19969;-69
2023/10/02 12:50:38;;;;;;;;;;;;;;;27.80;31.80;100390.50;5073189;28;19913;-69
2023/10/02 12:53:04;;;;;;;;;;;;;;;27.80;30.78;100384.97;5061545;28;19916;-69
2023/10/02 12:55:32;;;;;;;;;;;;;;;27.85;29.52;100385.97;5072244;28;19942;-69
2023/10/02 12:57:58;;;;;;;;;;;;;;;28.10;30.63;100387.34;5055059;28;19912;-68
2023/10/02 13:00:24;;;;;;;;;;;;;;;28.31;31.06;100391.22;5073503;28;19912;-68
2023/10/02 13:02:49;;;;;;;;;;;;;;;28.44;30.42;100394.25;5059268;28;19937;-68
2023/10/02 13:05:14;;;;;;;;;;;;;;;28.72;28.76;100392.16;5053131;28;19912;-69
2023/10/02 13:07:41;;;;;;;;;;;;;;;29.07;29.68;100389.53;5052789;28;19917;-69
2023/10/02 13:10:08;;;;;;;;;;;;;;;29.31;29.97;100381.66;5053096;28;19943;-69
2023/10/02 13:12:36;;;;;;;;;;;;;;;29.47;29.03;100379.22;5053161;28;19917;-69
2023/10/02 13:15:03;;;;;;;;;;;;;;;29.75;28.80;100376.19;5053440;28;19999;-68
2023/10/02 13:17:31;;;;;;;;;;;;;;;30.02;26.81;100383.34;5086591;28;20625;-68
2023/10/02 13:19:57;;;;;;;;;;;;;;;30.09;27.62;100380.91;5078603;28;19916;-68
2023/10/02 13:22:22;;;;;;;;;;;;;;;30.35;27.94;100377.31;5073410;28;20365;-68
2023/10/02 13:24:49;;;;;;;;;;;;;;;30.43;26.86;100378.44;5088270;28;19951;-68
2023/10/02 13:27:17;;;;;;;;;;;;;;;30.53;28.58;100378.06;5093159;28;19916;-68
2023/10/02 13:29:43;;;;;;;;;;;;;;;30.33;26.96;100373.22;5093280;28;19916;-68
2023/10/02 13:32:08;;;;;;;;;;;;;;;30.23;28.45;100369.63;5071074;28;19921;-69
2023/10/02 13:34:33;;;;;;;;;;;;;;;30.22;28.62;100359.72;5073444;28;19913;-69
2023/10/02 13:37:00;;;;;;;;;;;;;;;30.15;27.39;100364.13;5076436;28;19959;-69